Terminal Aerodrome Forecast
Issued by NWS Lake Charles, LA

Home | Current Version | Previous Version | Text Only | Print | Product List | Glossary On
Versions: 1 2 3 4 5 6 7 8 9 10 11 12 13 14 15 16 17
000
FTUS44 KLCH 171140
TAFAEX
TAF
KAEX 171140Z 1712/1812 VRB05KT P6SM -RA BKN007 OVC035
      TEMPO 1712/1715 5SM -RA BR FEW005 BKN035 OVC050
     FM171600 VRB05KT P6SM VCSH SCT015 OVC027
     FM171900 VRB03KT P6SM OVC050
     FM180500 VRB05KT P6SM VCSH SCT025 OVC040
      TEMPO 1806/1809 4SM TSRA BR BKN016 BKN030CB=

USA.gov is the U.S. government's official web portal to all federal, state and local government web resources and services.